createdAt,value
2023-04-05T00:01:20.812Z,95.09
2023-04-05T00:03:49.236Z,95.15
2023-04-05T00:06:17.317Z,95.53
2023-04-05T00:08:50.233Z,95.63
2023-04-05T00:11:18.626Z,95.72
2023-04-05T00:13:46.595Z,95.94
2023-04-05T00:16:15.728Z,96.18
2023-04-05T00:18:49.989Z,96.16
2023-04-05T00:24:08.303Z,97.25
2023-04-05T00:26:36.441Z,97.80
2023-04-05T00:29:04.925Z,97.90
2023-04-05T00:31:33.118Z,98.11
2023-04-05T00:34:01.378Z,98.56
2023-04-05T00:36:30.249Z,98.63
2023-04-05T00:38:58.218Z,98.92
2023-04-05T00:41:26.305Z,99.16
2023-04-05T00:43:54.406Z,99.61
2023-04-05T00:46:22.783Z,100.00
2023-04-05T00:48:51.080Z,100.00
2023-04-05T00:51:20.534Z,100.00
2023-04-05T00:53:53.069Z,100.00
2023-04-05T00:56:22.082Z,100.00
2023-04-05T00:58:52.319Z,100.00
2023-04-05T01:01:22.331Z,100.00
2023-04-05T01:03:54.084Z,100.00
2023-04-05T01:06:49.710Z,100.00
2023-04-05T01:10:05.668Z,100.00
2023-04-05T01:12:34.081Z,100.00
2023-04-05T01:15:05.068Z,100.00
2023-04-05T01:17:37.066Z,100.00
2023-04-05T01:20:10.600Z,100.00
2023-04-05T01:22:52.147Z,100.00
2023-04-05T01:25:42.597Z,100.00
2023-04-05T01:28:19.884Z,100.00
2023-04-05T01:30:53.183Z,100.00
2023-04-05T01:33:24.938Z,100.00
2023-04-05T01:36:09.173Z,100.00
2023-04-05T01:38:39.499Z,100.00
2023-04-05T01:41:07.559Z,100.00
2023-04-05T01:43:37.288Z,100.00
2023-04-05T01:46:05.788Z,100.00
2023-04-05T01:48:33.908Z,100.00
2023-04-05T01:51:02.807Z,100.00
2023-04-05T01:53:30.992Z,100.00
2023-04-05T01:56:02.472Z,100.00
2023-04-05T01:58:30.638Z,100.00
2023-04-05T02:00:59.826Z,100.00
2023-04-05T02:03:29.717Z,100.00
2023-04-05T02:05:59.803Z,100.00
2023-04-05T02:08:32.317Z,100.00
2023-04-05T02:11:00.583Z,100.00
2023-04-05T02:13:32.667Z,100.00
2023-04-05T02:16:00.886Z,100.00
2023-04-05T02:18:31.517Z,100.00
2023-04-05T02:21:08.374Z,100.00
2023-04-05T02:23:38.173Z,100.00
2023-04-05T02:26:06.460Z,100.00
2023-04-05T02:28:36.356Z,100.00
2023-04-05T02:31:10.472Z,100.00
2023-04-05T02:33:39.289Z,100.00
2023-04-05T02:36:09.495Z,100.00
2023-04-05T02:38:38.061Z,100.00
2023-04-05T02:41:11.811Z,100.00
2023-04-05T02:43:39.844Z,100.00
2023-04-05T02:46:07.930Z,100.00
2023-04-05T02:48:40.795Z,100.00
2023-04-05T02:51:09.456Z,100.00
2023-04-05T02:53:39.347Z,100.00
2023-04-05T02:56:09.530Z,100.00
2023-04-05T02:58:43.764Z,100.00
2023-04-05T03:01:12.949Z,100.00
2023-04-05T03:03:41.516Z,100.00
2023-04-05T03:06:13.591Z,100.00
2023-04-05T03:08:49.539Z,100.00
2023-04-05T03:11:25.596Z,100.00
2023-04-05T03:13:57.561Z,100.00
2023-04-05T03:16:47.321Z,100.00
2023-04-05T03:19:27.372Z,100.00
2023-04-05T03:21:59.567Z,100.00
2023-04-05T03:24:32.015Z,100.00
2023-04-05T03:27:02.689Z,100.00
2023-04-05T03:29:32.585Z,100.00
2023-04-05T03:32:01.869Z,100.00
2023-04-05T03:34:30.153Z,100.00
2023-04-05T03:37:02.347Z,100.00
2023-04-05T03:39:40.376Z,100.00
2023-04-05T03:42:09.019Z,100.00
2023-04-05T03:44:38.535Z,100.00
2023-04-05T03:47:08.146Z,100.00
2023-04-05T03:49:36.826Z,100.00
2023-04-05T03:52:05.007Z,100.00
2023-04-05T03:54:33.549Z,100.00
2023-04-05T03:57:02.452Z,100.00
2023-04-05T03:59:31.335Z,100.00
2023-04-05T04:02:00.292Z,100.00
2023-04-05T04:04:29.918Z,100.00
2023-04-05T04:06:58.285Z,100.00
2023-04-05T04:09:29.915Z,100.00
2023-04-05T04:12:01.346Z,100.00
2023-04-05T04:14:34.068Z,100.00
2023-04-05T04:17:34.717Z,100.00
2023-04-05T04:20:26.572Z,100.00
2023-04-05T04:23:30.744Z,100.00
2023-04-05T04:26:37.594Z,100.00
2023-04-05T04:29:31.625Z,100.00
2023-04-05T04:32:27.000Z,100.00
2023-04-05T04:35:14.843Z,100.00
2023-04-05T04:38:05.137Z,100.00
2023-04-05T04:40:47.005Z,100.00
2023-04-05T04:43:44.172Z,100.00
2023-04-05T04:46:43.334Z,100.00
2023-04-05T04:49:18.625Z,100.00
2023-04-05T04:51:48.852Z,100.00
2023-04-05T04:54:21.008Z,100.00
2023-04-05T04:56:50.124Z,100.00
2023-04-05T04:59:18.447Z,100.00
2023-04-05T05:01:46.679Z,100.00
2023-04-05T05:04:14.785Z,100.00
2023-04-05T05:06:44.356Z,100.00
2023-04-05T05:09:12.514Z,100.00
2023-04-05T05:12:01.837Z,100.00
2023-04-05T05:14:30.691Z,100.00
2023-04-05T05:17:01.356Z,100.00
2023-04-05T05:19:32.086Z,100.00
2023-04-05T05:22:00.622Z,100.00
2023-04-05T05:24:29.001Z,100.00
2023-04-05T05:26:57.146Z,100.00
2023-04-05T05:29:25.732Z,100.00
2023-04-05T05:31:53.793Z,100.00
2023-04-05T05:34:22.585Z,100.00
2023-04-05T05:36:57.749Z,100.00
2023-04-05T05:39:25.961Z,100.00
2023-04-05T05:41:56.479Z,100.00
2023-04-05T05:44:24.742Z,100.00
2023-04-05T05:46:52.915Z,100.00
2023-04-05T05:49:22.067Z,100.00
2023-04-05T05:51:52.982Z,100.00
2023-04-05T05:54:21.302Z,100.00
2023-04-05T05:56:49.298Z,100.00
2023-04-05T05:59:18.045Z,100.00
2023-04-05T06:01:46.927Z,100.00
2023-04-05T06:04:15.301Z,100.00
2023-04-05T06:06:44.235Z,100.00
2023-04-05T06:09:12.303Z,100.00
2023-04-05T06:11:53.154Z,100.00
2023-04-05T06:14:25.225Z,100.00
2023-04-05T06:16:53.858Z,100.00
2023-04-05T06:19:22.740Z,100.00
2023-04-05T06:21:50.686Z,100.00
2023-04-05T06:24:18.780Z,100.00
2023-04-05T06:26:47.081Z,100.00
2023-04-05T06:29:15.656Z,100.00
2023-04-05T06:31:46.553Z,100.00
2023-04-05T06:34:14.856Z,100.00
2023-04-05T06:36:47.714Z,100.00
2023-04-05T06:39:16.798Z,100.00
2023-04-05T06:41:45.061Z,100.00
2023-04-05T06:44:13.487Z,100.00
2023-04-05T06:46:41.412Z,100.00
2023-04-05T06:49:10.054Z,100.00
2023-04-05T06:51:38.184Z,100.00
2023-04-05T06:54:08.741Z,100.00
2023-04-05T07:00:51.696Z,100.00
2023-04-05T07:03:26.266Z,100.00
2023-04-05T07:05:59.500Z,100.00
2023-04-05T07:08:31.567Z,100.00
2023-04-05T07:10:59.940Z,100.00
2023-04-05T07:13:28.015Z,100.00
2023-04-05T07:16:01.000Z,100.00
2023-04-05T07:18:30.239Z,100.00
2023-04-05T07:21:03.746Z,100.00
2023-04-05T07:23:34.741Z,100.00
2023-04-05T07:26:04.844Z,100.00
2023-04-05T07:28:33.965Z,100.00
2023-04-05T07:31:02.964Z,100.00
2023-04-05T07:33:31.531Z,100.00
2023-04-05T07:35:59.726Z,100.00
2023-04-05T07:38:29.804Z,100.00
2023-04-05T07:40:58.946Z,100.00
2023-04-05T07:43:27.051Z,100.00
2023-04-05T07:46:01.844Z,100.00
2023-04-05T07:48:30.919Z,100.00
2023-04-05T07:51:09.164Z,100.00
2023-04-05T07:53:37.999Z,100.00
2023-04-05T07:56:07.429Z,100.00
2023-04-05T07:58:35.425Z,100.00
2023-04-05T08:01:03.686Z,100.00
2023-04-05T08:03:35.256Z,100.00
2023-04-05T08:06:09.910Z,100.00
2023-04-05T08:08:40.986Z,100.00
2023-04-05T08:11:13.161Z,100.00
2023-04-05T08:13:42.373Z,100.00
2023-04-05T08:16:11.453Z,100.00
2023-04-05T08:18:42.568Z,100.00
2023-04-05T08:21:11.182Z,100.00
2023-04-05T08:23:41.030Z,100.00
2023-04-05T08:26:09.177Z,100.00
2023-04-05T08:28:37.770Z,100.00
2023-04-05T08:31:06.241Z,100.00
2023-04-05T08:33:35.513Z,100.00
2023-04-05T08:36:08.117Z,100.00
2023-04-05T08:38:37.052Z,100.00
2023-04-05T08:41:26.376Z,100.00
2023-04-05T08:44:02.476Z,100.00
2023-04-05T08:46:32.185Z,100.00
2023-04-05T08:49:02.130Z,100.00
2023-04-05T08:51:30.389Z,100.00
2023-04-05T08:53:59.576Z,100.00
2023-04-05T08:56:37.105Z,100.00
2023-04-05T08:59:06.303Z,100.00
2023-04-05T09:01:38.770Z,100.00
2023-04-05T09:04:27.422Z,99.81
2023-04-05T09:06:56.826Z,99.59
2023-04-05T09:09:28.896Z,99.97
2023-04-05T09:11:58.193Z,100.00
2023-04-05T09:14:26.264Z,99.93
2023-04-05T09:16:54.522Z,99.87
2023-04-05T09:19:23.976Z,99.92
2023-04-05T09:22:02.839Z,100.00
2023-04-05T09:24:42.348Z,100.00
2023-04-05T09:27:14.085Z,100.00
2023-04-05T09:29:47.569Z,98.55
2023-04-05T09:32:18.387Z,95.91
2023-04-05T09:34:46.331Z,96.07
2023-04-05T09:37:22.377Z,96.89
2023-04-05T09:39:52.101Z,97.85
2023-04-05T09:42:23.336Z,98.63
2023-04-05T09:44:56.484Z,98.68
2023-04-05T09:47:25.935Z,98.25
2023-04-05T09:49:58.846Z,97.88
2023-04-05T09:52:34.283Z,97.81
2023-04-05T09:55:04.490Z,98.55
2023-04-05T09:57:39.779Z,97.46
2023-04-05T10:00:18.285Z,96.41
2023-04-05T10:02:48.006Z,95.16
2023-04-05T10:05:16.244Z,93.95
2023-04-05T10:07:45.439Z,92.43
2023-04-05T10:10:16.311Z,91.45
2023-04-05T10:12:45.787Z,91.23
2023-04-05T10:15:14.519Z,89.91
2023-04-05T10:17:51.618Z,88.69
2023-04-05T10:20:23.720Z,88.56
2023-04-05T10:22:52.258Z,89.43
2023-04-05T10:25:43.013Z,89.83
2023-04-05T10:28:35.352Z,88.37
2023-04-05T10:31:37.538Z,88.90
2023-04-05T10:34:08.279Z,88.34
2023-04-05T10:36:44.530Z,88.76
2023-04-05T10:39:16.005Z,88.29
2023-04-05T10:41:48.496Z,86.04
2023-04-05T10:44:25.853Z,86.06
2023-04-05T10:46:54.950Z,87.49
2023-04-05T10:49:37.851Z,87.93
2023-04-05T10:52:06.628Z,86.55
2023-04-05T10:54:36.770Z,85.33
2023-04-05T10:57:10.381Z,85.02
2023-04-05T10:59:44.791Z,85.45
2023-04-05T11:02:13.893Z,86.62
2023-04-05T11:04:43.002Z,87.46
2023-04-05T11:07:11.191Z,87.11
2023-04-05T11:09:40.397Z,86.33
2023-04-05T11:12:14.868Z,85.13
2023-04-05T11:14:44.673Z,83.78
2023-04-05T11:17:28.803Z,83.39
2023-04-05T11:20:04.776Z,83.36
2023-04-05T11:22:33.371Z,83.34
2023-04-05T11:25:03.384Z,82.82
2023-04-05T11:27:34.153Z,82.64
2023-04-05T11:30:03.024Z,81.69
2023-04-05T11:32:41.125Z,81.63
2023-04-05T11:35:18.208Z,82.12
2023-04-05T11:38:01.741Z,80.64
2023-04-05T11:40:31.569Z,79.17
2023-04-05T11:43:12.586Z,79.75
2023-04-05T11:45:42.181Z,81.00
2023-04-05T11:48:13.352Z,80.33
2023-04-05T11:50:47.608Z,78.08
2023-04-05T11:53:18.722Z,77.30
2023-04-05T11:55:51.372Z,77.03
2023-04-05T11:58:24.211Z,76.87
2023-04-05T12:01:02.897Z,76.38
2023-04-05T12:03:34.389Z,74.99
2023-04-05T12:06:04.501Z,75.24
2023-04-05T12:08:42.979Z,74.18
2023-04-05T12:11:15.796Z,72.27
2023-04-05T12:13:45.446Z,71.07
2023-04-05T12:16:13.527Z,70.43
2023-04-05T12:18:44.425Z,68.79
2023-04-05T12:21:13.106Z,68.42
2023-04-05T12:23:41.588Z,67.16
2023-04-05T12:26:09.959Z,65.35
2023-04-05T12:28:57.872Z,60.36
2023-04-05T12:31:45.704Z,56.84
2023-04-05T12:34:14.535Z,53.11
2023-04-05T12:36:46.202Z,51.32
2023-04-05T12:41:04.747Z,50.72
2023-04-05T12:43:43.145Z,52.09
2023-04-05T12:46:20.692Z,53.38
2023-04-05T12:48:53.479Z,54.45
2023-04-05T12:51:21.604Z,54.62
2023-04-05T12:53:49.589Z,55.21
2023-04-05T12:56:18.457Z,56.01
2023-04-05T12:58:51.219Z,56.63
2023-04-05T13:01:20.263Z,56.67
2023-04-05T13:03:50.059Z,57.08
2023-04-05T13:06:18.241Z,57.84
2023-04-05T13:08:46.815Z,58.43
2023-04-05T13:11:14.812Z,58.90
2023-04-05T13:13:45.521Z,59.28
2023-04-05T13:16:13.701Z,58.85
2023-04-05T13:18:42.269Z,58.63
2023-04-05T13:21:12.027Z,59.50
2023-04-05T13:23:41.870Z,60.19
2023-04-05T13:26:14.151Z,60.64
2023-04-05T13:28:42.454Z,61.35
2023-04-05T13:31:11.296Z,61.77
2023-04-05T13:33:41.324Z,61.89
2023-04-05T13:36:11.028Z,62.12
2023-04-05T13:38:40.341Z,62.64
2023-04-05T13:41:08.417Z,63.11
2023-04-05T13:43:36.578Z,63.09
2023-04-05T13:46:05.493Z,62.80
2023-04-05T13:48:34.173Z,62.06
2023-04-05T13:51:06.459Z,61.64
2023-04-05T13:53:35.218Z,61.80
2023-04-05T13:56:03.498Z,61.88
2023-04-05T13:58:32.085Z,61.30
2023-04-05T14:01:00.614Z,60.61
2023-04-05T14:03:36.152Z,60.81
2023-04-05T14:06:04.475Z,60.81
2023-04-05T14:08:32.419Z,60.54
2023-04-05T14:11:01.423Z,60.45
2023-04-05T14:13:31.621Z,61.63
2023-04-05T14:15:59.640Z,63.33
2023-04-05T14:18:27.765Z,64.47
2023-04-05T14:20:58.988Z,65.21
2023-04-05T14:23:27.244Z,65.85
2023-04-05T14:25:55.612Z,66.07
2023-04-05T14:28:24.203Z,66.47
2023-04-05T14:30:54.831Z,66.64
2023-04-05T14:33:24.645Z,66.76
2023-04-05T14:35:53.473Z,66.13
2023-04-05T14:38:28.567Z,65.64
2023-04-05T14:40:57.058Z,66.00
2023-04-05T14:43:27.945Z,66.47
2023-04-05T14:45:56.092Z,67.20
2023-04-05T14:48:24.450Z,67.75
2023-04-05T14:50:54.635Z,67.82
2023-04-05T14:53:22.725Z,67.95
2023-04-05T14:55:52.085Z,68.56
2023-04-05T14:58:20.513Z,68.99
2023-04-05T15:00:52.396Z,69.45
2023-04-05T15:03:22.301Z,69.48
2023-04-05T15:05:50.826Z,69.25
2023-04-05T15:08:18.962Z,69.65
2023-04-05T15:10:47.074Z,70.29
2023-04-05T15:13:15.837Z,70.58
2023-04-05T15:15:44.012Z,70.31
2023-04-05T15:18:21.070Z,69.82
2023-04-05T15:20:49.445Z,69.83
2023-04-05T15:23:17.638Z,69.90
2023-04-05T15:25:46.205Z,69.83
2023-04-05T15:28:14.903Z,69.82
2023-04-05T15:30:45.914Z,69.82
2023-04-05T15:33:14.525Z,69.21
2023-04-05T15:35:43.385Z,69.08
2023-04-05T15:38:12.524Z,69.30
2023-04-05T15:40:41.142Z,69.25
2023-04-05T15:43:09.808Z,69.77
2023-04-05T15:45:38.298Z,70.38
2023-04-05T15:48:06.552Z,70.93
2023-04-05T15:50:35.027Z,71.31
2023-04-05T15:53:03.194Z,71.73
2023-04-05T15:55:31.465Z,71.96
2023-04-05T15:57:59.600Z,71.70
2023-04-05T16:00:28.518Z,71.61
2023-04-05T16:03:00.765Z,71.93
2023-04-05T16:05:29.795Z,72.29
2023-04-05T16:07:59.928Z,72.79
2023-04-05T16:10:28.188Z,73.12
2023-04-05T16:13:01.229Z,73.50
2023-04-05T16:15:30.527Z,74.04
2023-04-05T16:17:58.657Z,74.99
2023-04-05T16:20:28.542Z,75.14
2023-04-05T16:22:57.573Z,74.61
2023-04-05T16:25:25.584Z,74.30
2023-04-05T16:27:56.574Z,74.01
2023-04-05T16:30:24.759Z,73.66
2023-04-05T16:32:53.364Z,73.68
2023-04-05T16:35:21.811Z,73.59
2023-04-05T16:37:50.287Z,73.77
2023-04-05T16:40:18.678Z,74.30
2023-04-05T16:42:47.364Z,74.65
2023-04-05T16:45:15.677Z,74.93
2023-04-05T16:47:44.147Z,75.34
2023-04-05T16:50:12.443Z,75.67
2023-04-05T16:52:41.197Z,75.69
2023-04-05T16:55:09.980Z,75.81
2023-04-05T16:57:39.100Z,75.85
2023-04-05T17:00:08.182Z,76.25
2023-04-05T17:02:38.516Z,76.82
2023-04-05T17:05:08.617Z,77.48
2023-04-05T17:07:37.751Z,78.04
2023-04-05T17:10:07.406Z,78.73
2023-04-05T17:12:51.976Z,79.07
2023-04-05T17:15:20.034Z,79.49
2023-04-05T17:17:48.459Z,79.98
2023-04-05T17:20:16.908Z,80.10
2023-04-05T17:22:46.464Z,80.32
2023-04-05T17:25:14.713Z,80.38
2023-04-05T17:27:42.792Z,80.49
2023-04-05T17:30:11.802Z,80.56
2023-04-05T17:32:52.228Z,80.56
2023-04-05T17:35:20.754Z,80.69
2023-04-05T17:37:49.474Z,80.97
2023-04-05T17:40:18.705Z,81.13
2023-04-05T17:42:46.848Z,81.30
2023-04-05T17:45:14.954Z,81.31
2023-04-05T17:47:44.450Z,81.75
2023-04-05T17:50:12.713Z,81.91
2023-04-05T17:52:41.146Z,81.88
2023-04-05T17:55:09.989Z,82.29
2023-04-05T17:57:39.288Z,82.76
2023-04-05T18:00:08.790Z,83.35
2023-04-05T18:02:40.895Z,83.57
2023-04-05T18:05:10.597Z,84.01
2023-04-05T18:07:38.842Z,84.39
2023-04-05T18:10:08.246Z,84.76
2023-04-05T18:12:36.758Z,85.41
2023-04-05T18:15:05.445Z,85.95
2023-04-05T18:17:34.460Z,86.08
2023-04-05T18:20:02.875Z,86.83
2023-04-05T18:22:37.916Z,87.07
2023-04-05T18:25:08.667Z,87.23
2023-04-05T18:27:39.195Z,87.35
2023-04-05T18:30:08.337Z,87.49
2023-04-05T18:32:39.289Z,87.64
2023-04-05T18:35:09.139Z,87.99
2023-04-05T18:37:37.815Z,88.17
2023-04-05T18:40:06.920Z,88.53
2023-04-05T18:42:40.190Z,88.70
2023-04-05T18:45:09.097Z,88.99
2023-04-05T18:47:37.316Z,89.22
2023-04-05T18:50:10.069Z,89.30
2023-04-05T18:52:38.226Z,89.82
2023-04-05T18:55:07.247Z,90.27
2023-04-05T18:57:36.434Z,91.21
2023-04-05T19:00:05.457Z,92.81
2023-04-05T19:02:35.247Z,93.60
2023-04-05T19:05:03.853Z,95.50
2023-04-05T19:07:33.094Z,96.81
2023-04-05T19:10:01.460Z,98.18
2023-04-05T19:12:29.604Z,100.00
2023-04-05T19:14:57.717Z,100.00
2023-04-05T19:17:25.798Z,100.00
2023-04-05T19:19:54.026Z,100.00
2023-04-05T19:22:23.028Z,100.00
2023-04-05T19:24:51.311Z,100.00
2023-04-05T19:27:22.935Z,100.00
2023-04-05T19:29:51.025Z,100.00
2023-04-05T19:32:19.173Z,100.00
2023-04-05T19:34:47.197Z,100.00
2023-04-05T19:37:16.048Z,100.00
2023-04-05T19:39:45.834Z,100.00
2023-04-05T19:42:14.777Z,100.00
2023-04-05T19:44:57.832Z,100.00
2023-04-05T19:47:27.267Z,100.00
2023-04-05T19:50:00.529Z,100.00
2023-04-05T19:52:38.246Z,100.00
2023-04-05T19:55:28.724Z,100.00
2023-04-05T19:57:57.155Z,100.00
2023-04-05T20:00:47.244Z,100.00
2023-04-05T20:03:32.299Z,100.00
2023-04-05T20:06:11.275Z,100.00
2023-04-05T20:08:41.320Z,100.00
2023-04-05T20:11:15.940Z,100.00
2023-04-05T20:13:50.827Z,100.00
2023-04-05T20:16:23.975Z,100.00
2023-04-05T20:18:53.032Z,100.00
2023-04-05T20:21:21.224Z,100.00
2023-04-05T20:23:49.371Z,100.00
2023-04-05T20:26:17.590Z,100.00
2023-04-05T20:28:56.865Z,100.00
2023-04-05T20:31:33.487Z,100.00
2023-04-05T20:34:15.040Z,100.00
2023-04-05T20:36:49.483Z,100.00
2023-04-05T20:39:18.663Z,100.00
2023-04-05T20:41:47.164Z,100.00
2023-04-05T20:44:15.917Z,100.00
2023-04-05T20:46:45.374Z,100.00
2023-04-05T20:49:14.115Z,100.00
2023-04-05T20:51:43.160Z,100.00
2023-04-05T20:54:11.888Z,100.00
2023-04-05T20:56:44.115Z,100.00
2023-04-05T20:59:12.320Z,100.00
2023-04-05T21:01:43.075Z,100.00
2023-04-05T21:04:12.162Z,100.00
2023-04-05T21:06:40.550Z,100.00
2023-04-05T21:09:09.433Z,100.00
2023-04-05T21:11:38.495Z,100.00
2023-04-05T21:14:08.529Z,100.00
2023-04-05T21:16:37.667Z,100.00
2023-04-05T21:19:06.621Z,100.00
2023-04-05T21:21:36.249Z,100.00
2023-04-05T21:24:04.873Z,100.00
2023-04-05T21:26:33.121Z,100.00
2023-04-05T21:29:03.843Z,100.00
2023-04-05T21:31:33.672Z,100.00
2023-04-05T21:34:01.971Z,100.00
2023-04-05T21:36:31.247Z,100.00
2023-04-05T21:38:59.499Z,100.00
2023-04-05T21:41:27.692Z,100.00
2023-04-05T21:43:56.733Z,100.00
2023-04-05T21:46:24.870Z,100.00
2023-04-05T21:48:53.027Z,100.00
2023-04-05T21:51:21.609Z,100.00
2023-04-05T21:53:49.839Z,100.00
2023-04-05T21:56:21.424Z,100.00
2023-04-05T21:58:49.659Z,100.00
2023-04-05T22:01:17.876Z,100.00
2023-04-05T22:03:47.395Z,100.00
2023-04-05T22:06:15.939Z,100.00
2023-04-05T22:08:44.158Z,100.00
2023-04-05T22:11:12.678Z,100.00
2023-04-05T22:13:42.447Z,100.00
2023-04-05T22:16:10.578Z,100.00
2023-04-05T22:18:38.726Z,100.00
2023-04-05T22:21:06.767Z,100.00
2023-04-05T22:23:35.159Z,100.00
2023-04-05T22:26:03.236Z,100.00
2023-04-05T22:28:32.009Z,100.00
2023-04-05T22:31:00.232Z,100.00
2023-04-05T22:33:29.520Z,100.00
2023-04-05T22:35:57.627Z,100.00
2023-04-05T22:38:27.398Z,100.00
2023-04-05T22:40:55.639Z,100.00
2023-04-05T22:43:24.203Z,100.00
2023-04-05T22:45:52.906Z,100.00
2023-04-05T22:48:21.385Z,100.00
2023-04-05T22:50:49.560Z,100.00
2023-04-05T22:53:17.856Z,100.00
2023-04-05T22:55:47.690Z,100.00
2023-04-05T22:58:16.707Z,100.00
2023-04-05T23:00:44.920Z,100.00
2023-04-05T23:03:15.309Z,100.00
2023-04-05T23:05:43.641Z,100.00
2023-04-05T23:08:11.680Z,100.00
2023-04-05T23:10:39.784Z,100.00
2023-04-05T23:13:08.240Z,100.00
2023-04-05T23:15:36.768Z,100.00
2023-04-05T23:18:08.307Z,100.00
2023-04-05T23:20:36.770Z,100.00
2023-04-05T23:23:05.454Z,100.00
2023-04-05T23:25:33.537Z,100.00
2023-04-05T23:28:01.531Z,100.00
2023-04-05T23:30:30.958Z,100.00
2023-04-05T23:33:01.376Z,100.00
2023-04-05T23:35:29.987Z,100.00
2023-04-05T23:37:58.511Z,100.00
2023-04-05T23:40:26.606Z,100.00
2023-04-05T23:42:55.623Z,100.00
2023-04-05T23:45:24.852Z,100.00
2023-04-05T23:47:58.879Z,100.00
2023-04-05T23:50:27.542Z,100.00
2023-04-05T23:52:55.590Z,100.00
2023-04-05T23:55:26.333Z,100.00
2023-04-05T23:57:57.914Z,100.00
